createdAt,value
2017-10-16T00:00:45.820Z,59.7
2017-10-16T00:01:47.427Z,59.6
2017-10-16T00:02:49.048Z,59.8
2017-10-16T00:03:50.650Z,59.6
2017-10-16T00:04:52.262Z,59.8
2017-10-16T00:05:53.869Z,60.4
2017-10-16T00:06:55.485Z,60.8
2017-10-16T00:07:57.087Z,60.8
2017-10-16T00:08:58.700Z,61.1
2017-10-16T00:10:00.312Z,61.0
2017-10-16T00:11:01.924Z,61.6
2017-10-16T00:12:03.534Z,61.7
2017-10-16T00:13:05.138Z,61.6
2017-10-16T00:14:06.752Z,62.0
2017-10-16T00:15:08.357Z,62.3
2017-10-16T00:16:09.973Z,61.7
2017-10-16T00:17:11.580Z,61.7
2017-10-16T00:18:13.196Z,62.3
2017-10-16T00:19:14.806Z,61.8
2017-10-16T00:20:16.413Z,61.9
2017-10-16T00:21:18.027Z,61.9
2017-10-16T00:22:19.635Z,61.1
2017-10-16T00:23:21.248Z,61.4
2017-10-16T00:24:22.859Z,61.3
2017-10-16T00:25:24.474Z,60.5
2017-10-16T00:26:26.081Z,60.4
2017-10-16T00:27:27.696Z,60.8
2017-10-16T00:28:29.305Z,60.4
2017-10-16T00:29:30.916Z,61.1
2017-10-16T00:30:32.522Z,60.6
2017-10-16T00:31:34.138Z,60.1
2017-10-16T00:32:35.745Z,59.6
2017-10-16T00:33:37.363Z,60.2
2017-10-16T00:34:38.972Z,59.0
2017-10-16T00:35:40.578Z,58.7
2017-10-16T00:36:42.193Z,58.6
2017-10-16T00:37:43.801Z,59.1
2017-10-16T00:38:45.414Z,59.6
2017-10-16T00:39:47.027Z,59.4
2017-10-16T00:40:48.635Z,59.2
2017-10-16T00:41:50.243Z,59.8
2017-10-16T00:42:51.850Z,60.3
2017-10-16T00:43:53.462Z,59.6
2017-10-16T00:44:55.078Z,59.3
2017-10-16T00:45:56.686Z,59.5
2017-10-16T00:46:58.295Z,59.7
2017-10-16T00:47:59.909Z,60.3
2017-10-16T00:49:01.521Z,60.9
2017-10-16T00:50:03.127Z,59.0
2017-10-16T00:51:04.743Z,59.9
2017-10-16T00:52:06.352Z,59.8
2017-10-16T00:53:07.968Z,59.7
2017-10-16T00:54:09.580Z,60.4
2017-10-16T00:55:11.190Z,60.5
2017-10-16T00:56:12.798Z,59.6
2017-10-16T00:57:14.410Z,60.4
2017-10-16T00:58:16.014Z,60.6
2017-10-16T00:59:17.624Z,59.7
2017-10-16T01:00:19.239Z,60.3
2017-10-16T01:01:20.851Z,60.4
2017-10-16T01:02:22.462Z,59.7
2017-10-16T01:03:24.070Z,59.7
2017-10-16T01:04:25.686Z,60.0
2017-10-16T01:05:27.298Z,59.2
2017-10-16T01:06:28.903Z,60.3
2017-10-16T01:07:30.514Z,59.6
2017-10-16T01:08:32.131Z,59.2
2017-10-16T01:09:33.740Z,59.7
2017-10-16T01:10:35.348Z,59.6
2017-10-16T01:11:36.960Z,58.7
2017-10-16T01:12:38.573Z,59.3
2017-10-16T01:13:40.178Z,59.3
2017-10-16T01:14:41.791Z,59.4
2017-10-16T01:15:43.405Z,59.3
2017-10-16T01:16:45.011Z,59.3
2017-10-16T01:17:46.626Z,59.2
2017-10-16T01:18:48.231Z,59.7
2017-10-16T01:19:49.845Z,59.7
2017-10-16T01:20:51.452Z,59.7
2017-10-16T01:21:53.076Z,59.7
2017-10-16T01:22:54.678Z,58.9
2017-10-16T01:23:56.293Z,59.2
2017-10-16T01:24:57.899Z,59.0
2017-10-16T01:25:59.506Z,58.7
2017-10-16T01:27:01.112Z,59.2
2017-10-16T01:28:02.719Z,58.8
2017-10-16T01:29:04.331Z,58.4
2017-10-16T01:30:05.947Z,58.4
2017-10-16T01:31:07.556Z,58.7
2017-10-16T01:32:09.164Z,59.1
2017-10-16T01:33:10.778Z,59.1
2017-10-16T01:34:12.383Z,59.3
2017-10-16T01:35:13.995Z,60.0
2017-10-16T01:36:15.601Z,59.5
2017-10-16T01:37:17.216Z,59.2
2017-10-16T01:38:18.823Z,59.4
2017-10-16T01:39:20.432Z,59.1
2017-10-16T01:40:22.037Z,58.9
2017-10-16T01:41:23.652Z,59.6
2017-10-16T01:42:25.265Z,59.2
2017-10-16T01:43:26.878Z,59.2
2017-10-16T01:44:28.491Z,59.5
2017-10-16T01:45:30.109Z,58.8
2017-10-16T01:46:31.713Z,59.3
2017-10-16T01:47:33.323Z,59.3
2017-10-16T01:48:34.929Z,58.8
2017-10-16T01:49:36.543Z,58.4
2017-10-16T01:50:38.183Z,59.0
2017-10-16T01:51:39.764Z,58.8
2017-10-16T01:52:41.376Z,58.0
2017-10-16T01:53:42.987Z,58.1
2017-10-16T01:54:44.596Z,57.5
2017-10-16T01:55:46.208Z,57.6
2017-10-16T01:56:47.820Z,57.0
2017-10-16T01:57:49.428Z,57.8
2017-10-16T01:58:51.045Z,56.5
2017-10-16T01:59:52.655Z,56.5
2017-10-16T02:00:54.264Z,57.2
2017-10-16T02:01:55.871Z,57.3
2017-10-16T02:02:57.480Z,56.8
2017-10-16T02:03:59.093Z,57.4
2017-10-16T02:05:00.704Z,56.2
2017-10-16T02:06:02.312Z,57.3
2017-10-16T02:07:03.925Z,57.6
2017-10-16T02:08:05.530Z,57.6
2017-10-16T02:09:07.143Z,57.8
2017-10-16T02:10:08.747Z,56.9
2017-10-16T02:11:10.357Z,57.2
2017-10-16T02:12:11.973Z,56.6
2017-10-16T02:13:13.581Z,57.4
2017-10-16T02:14:15.196Z,56.2
2017-10-16T02:15:16.803Z,57.1
2017-10-16T02:16:18.415Z,56.3
2017-10-16T02:17:20.018Z,56.1
2017-10-16T02:18:21.638Z,56.4
2017-10-16T02:19:23.237Z,55.6
2017-10-16T02:20:24.854Z,55.6
2017-10-16T02:21:26.460Z,56.0
2017-10-16T02:22:28.074Z,54.9
2017-10-16T02:23:29.682Z,55.5
2017-10-16T02:24:31.298Z,55.0
2017-10-16T02:25:32.904Z,55.6
2017-10-16T02:26:34.519Z,55.1
2017-10-16T02:27:36.127Z,54.5
2017-10-16T02:28:37.745Z,54.9
2017-10-16T02:29:39.358Z,54.7
2017-10-16T02:30:40.965Z,54.9
2017-10-16T02:31:42.578Z,54.7
2017-10-16T02:32:44.184Z,55.1
2017-10-16T02:33:45.800Z,55.1
2017-10-16T02:34:47.408Z,54.9
2017-10-16T02:35:49.032Z,54.5
2017-10-16T02:36:50.636Z,54.5
2017-10-16T02:37:52.250Z,55.0
2017-10-16T02:38:53.859Z,54.7
2017-10-16T02:39:55.471Z,54.3
2017-10-16T02:40:57.081Z,54.9
2017-10-16T02:41:58.706Z,54.8
2017-10-16T02:43:00.306Z,53.9
2017-10-16T02:44:01.932Z,55.2
2017-10-16T02:45:03.531Z,55.1
2017-10-16T02:46:05.146Z,54.9
2017-10-16T02:47:06.750Z,54.3
2017-10-16T02:48:08.361Z,54.5
2017-10-16T02:49:09.975Z,55.0
2017-10-16T02:50:11.590Z,55.4
2017-10-16T02:51:13.196Z,55.3
2017-10-16T02:52:14.803Z,54.5
2017-10-16T02:53:16.416Z,55.7
2017-10-16T02:54:18.027Z,55.1
2017-10-16T02:55:19.636Z,54.6
2017-10-16T02:56:21.242Z,55.5
2017-10-16T02:57:22.857Z,55.4
2017-10-16T02:58:24.467Z,55.5
2017-10-16T02:59:26.079Z,55.9
2017-10-16T03:00:27.678Z,56.0
2017-10-16T03:01:29.295Z,56.4
2017-10-16T03:02:30.899Z,55.7
2017-10-16T03:03:32.509Z,56.4
2017-10-16T03:04:34.120Z,55.5
2017-10-16T03:05:35.733Z,56.2
2017-10-16T03:06:37.338Z,55.3
2017-10-16T03:07:38.952Z,54.9
2017-10-16T03:08:40.558Z,56.4
2017-10-16T03:09:42.175Z,56.4
2017-10-16T03:10:43.785Z,55.6
2017-10-16T03:11:45.401Z,55.0
2017-10-16T03:12:46.999Z,54.7
2017-10-16T03:13:48.613Z,55.0
2017-10-16T03:14:50.235Z,54.4
2017-10-16T03:15:51.842Z,54.6
2017-10-16T03:16:53.453Z,54.9
2017-10-16T03:17:55.068Z,54.2
2017-10-16T03:18:56.681Z,55.1
2017-10-16T03:19:58.287Z,55.0
2017-10-16T03:20:59.904Z,55.4
2017-10-16T03:22:01.514Z,54.8
2017-10-16T03:23:03.123Z,54.8
2017-10-16T03:24:04.730Z,55.1
2017-10-16T03:25:06.344Z,54.4
2017-10-16T03:26:07.950Z,54.5
2017-10-16T03:27:09.558Z,54.6
2017-10-16T03:28:11.171Z,54.7
2017-10-16T03:29:12.777Z,55.4
2017-10-16T03:30:14.391Z,55.0
2017-10-16T03:31:15.999Z,55.0
2017-10-16T03:32:17.613Z,54.6
2017-10-16T03:33:19.222Z,54.6
2017-10-16T03:34:20.834Z,54.1
2017-10-16T03:35:22.445Z,54.4
2017-10-16T03:36:24.054Z,54.4
2017-10-16T03:37:25.664Z,53.5
2017-10-16T03:38:27.279Z,54.3
2017-10-16T03:39:28.891Z,52.7
2017-10-16T03:40:30.499Z,53.5
2017-10-16T03:41:32.117Z,53.2
2017-10-16T03:42:33.729Z,53.1
2017-10-16T03:43:35.340Z,53.1
2017-10-16T03:44:36.946Z,53.1
2017-10-16T03:45:38.561Z,53.0
2017-10-16T03:46:40.169Z,53.3
2017-10-16T03:47:41.789Z,53.6
2017-10-16T03:48:43.391Z,53.4
2017-10-16T03:49:45.004Z,53.0
2017-10-16T03:50:46.611Z,52.3
2017-10-16T03:51:48.218Z,52.8
2017-10-16T03:52:49.831Z,52.8
2017-10-16T03:53:51.448Z,52.7
2017-10-16T03:54:53.054Z,52.7
2017-10-16T03:55:54.660Z,52.7
2017-10-16T03:56:56.275Z,52.0
2017-10-16T03:57:57.886Z,52.2
2017-10-16T03:58:59.493Z,52.7
2017-10-16T04:00:01.107Z,51.6
2017-10-16T04:01:02.716Z,51.6
2017-10-16T04:02:04.329Z,53.0
2017-10-16T04:03:05.942Z,52.1
2017-10-16T04:04:07.553Z,52.6
2017-10-16T04:05:09.161Z,52.7
2017-10-16T04:06:10.768Z,52.7
2017-10-16T04:07:12.382Z,53.1
2017-10-16T04:08:13.995Z,52.9
2017-10-16T04:09:15.603Z,53.0
2017-10-16T04:10:17.209Z,52.6
2017-10-16T04:11:18.822Z,52.2
2017-10-16T04:12:20.433Z,52.3
2017-10-16T04:13:22.038Z,53.0
2017-10-16T04:14:23.649Z,52.5
2017-10-16T04:15:25.262Z,52.2
2017-10-16T04:16:26.879Z,52.1
2017-10-16T04:17:28.489Z,51.5
2017-10-16T04:18:30.099Z,52.1
2017-10-16T04:19:31.708Z,51.1
2017-10-16T04:20:33.319Z,51.8
2017-10-16T04:21:34.932Z,51.2
2017-10-16T04:22:36.539Z,51.7
2017-10-16T04:23:38.149Z,51.9
2017-10-16T04:24:39.762Z,52.1
2017-10-16T04:25:41.369Z,52.2
2017-10-16T04:26:42.982Z,52.2
2017-10-16T04:27:44.589Z,52.0
2017-10-16T04:28:46.201Z,52.6
2017-10-16T04:29:47.810Z,52.1
2017-10-16T04:30:49.431Z,52.6
2017-10-16T04:31:51.034Z,53.6
2017-10-16T04:32:52.646Z,53.0
2017-10-16T04:33:54.257Z,52.9
2017-10-16T04:34:55.867Z,53.8
2017-10-16T04:35:57.475Z,53.4
2017-10-16T04:36:59.089Z,53.2
2017-10-16T04:38:00.698Z,52.7
2017-10-16T04:39:02.310Z,53.3
2017-10-16T04:40:03.923Z,53.9
2017-10-16T04:41:05.529Z,53.7
2017-10-16T04:42:07.142Z,54.3
2017-10-16T04:43:08.750Z,54.2
2017-10-16T04:44:10.367Z,52.1
2017-10-16T04:45:11.974Z,52.1
2017-10-16T04:46:13.586Z,52.1
2017-10-16T04:47:15.193Z,52.9
2017-10-16T04:48:16.806Z,52.1
2017-10-16T04:49:18.413Z,51.6
2017-10-16T04:50:20.022Z,51.6
2017-10-16T04:51:21.632Z,51.6
2017-10-16T04:52:23.241Z,51.5
2017-10-16T04:53:24.850Z,51.4
2017-10-16T04:54:26.464Z,52.1
2017-10-16T04:55:28.078Z,51.6
2017-10-16T04:56:29.680Z,51.9
2017-10-16T04:57:31.298Z,51.6
2017-10-16T04:58:32.904Z,52.2
2017-10-16T04:59:34.517Z,51.2
2017-10-16T05:00:36.129Z,51.5
2017-10-16T05:01:37.739Z,52.2
2017-10-16T05:02:39.350Z,51.7
2017-10-16T05:03:40.956Z,52.1
2017-10-16T05:04:42.570Z,52.2
2017-10-16T05:05:44.182Z,52.8
2017-10-16T05:06:45.794Z,52.1
2017-10-16T05:07:47.401Z,52.7
2017-10-16T05:08:49.013Z,52.7
2017-10-16T05:09:50.624Z,52.8
2017-10-16T05:10:52.231Z,53.0
2017-10-16T05:11:53.838Z,53.2
2017-10-16T05:12:55.448Z,53.1
2017-10-16T05:13:57.065Z,53.2
2017-10-16T05:14:58.673Z,53.5
2017-10-16T05:16:00.286Z,53.3
2017-10-16T05:17:01.894Z,53.9
2017-10-16T05:18:03.508Z,54.1
2017-10-16T05:19:05.116Z,54.2
2017-10-16T05:20:06.732Z,53.2
2017-10-16T05:21:08.342Z,53.6
2017-10-16T05:22:09.955Z,53.4
2017-10-16T05:23:11.563Z,53.7
2017-10-16T05:24:13.173Z,51.8
2017-10-16T05:25:14.786Z,51.2
2017-10-16T05:26:16.396Z,50.0
2017-10-16T05:27:18.006Z,51.4
2017-10-16T05:28:19.619Z,49.5
2017-10-16T05:29:21.228Z,52.1
2017-10-16T05:30:22.833Z,52.3
2017-10-16T05:31:24.446Z,53.1
2017-10-16T05:32:26.053Z,52.6
2017-10-16T05:33:27.673Z,52.9
2017-10-16T05:34:29.275Z,51.4
2017-10-16T05:35:30.891Z,53.6
2017-10-16T05:36:32.500Z,55.5
2017-10-16T05:37:34.117Z,55.7
2017-10-16T05:38:35.729Z,56.3
2017-10-16T05:39:37.341Z,56.4
2017-10-16T05:40:38.953Z,56.4
2017-10-16T05:41:40.562Z,57.4
2017-10-16T05:42:42.176Z,57.0
2017-10-16T05:43:43.782Z,58.5
2017-10-16T05:44:45.399Z,54.1
2017-10-16T05:45:47.013Z,59.7
2017-10-16T05:46:48.626Z,59.6
2017-10-16T05:47:50.233Z,61.3
2017-10-16T05:48:51.843Z,58.5
2017-10-16T05:49:53.461Z,60.2
2017-10-16T05:50:55.092Z,61.7
2017-10-16T05:51:56.701Z,61.9
2017-10-16T05:52:58.312Z,61.7
2017-10-16T05:53:59.967Z,61.8
2017-10-16T05:55:01.543Z,61.9
2017-10-16T05:56:03.155Z,61.9
2017-10-16T05:57:04.769Z,62.2
2017-10-16T05:58:06.379Z,63.6
2017-10-16T05:59:07.990Z,60.4
2017-10-16T06:00:09.602Z,62.0
2017-10-16T06:01:11.219Z,61.7
2017-10-16T06:02:12.830Z,62.3
2017-10-16T06:03:14.444Z,62.4
2017-10-16T06:04:16.061Z,65.8
2017-10-16T06:05:17.684Z,67.1
2017-10-16T06:06:19.292Z,66.5
2017-10-16T06:07:27.249Z,66.7
2017-10-16T06:08:28.922Z,66.6
2017-10-16T06:09:30.540Z,66.0
2017-10-16T06:10:32.150Z,66.6
2017-10-16T06:11:33.820Z,66.4
2017-10-16T06:12:35.429Z,66.4
2017-10-16T06:13:37.036Z,65.8
2017-10-16T06:14:38.649Z,65.8
2017-10-16T06:15:40.265Z,65.7
2017-10-16T06:16:41.874Z,65.8
2017-10-16T06:17:43.499Z,65.5
2017-10-16T06:18:45.139Z,65.3
2017-10-16T06:19:46.749Z,65.6
2017-10-16T06:20:48.366Z,65.4
2017-10-16T06:21:49.977Z,65.3
2017-10-16T06:22:51.592Z,65.4
2017-10-16T06:23:53.208Z,65.2
2017-10-16T06:24:54.890Z,65.2
2017-10-16T06:25:56.504Z,65.5
2017-10-16T06:26:58.124Z,65.1
2017-10-16T06:27:59.741Z,65.9
2017-10-16T06:29:01.351Z,65.4
2017-10-16T06:30:02.973Z,65.4
2017-10-16T06:31:04.591Z,65.8
2017-10-16T06:32:06.220Z,66.0
2017-10-16T06:33:07.836Z,64.1
2017-10-16T06:34:09.452Z,65.4
2017-10-16T06:35:11.062Z,65.5
2017-10-16T06:36:12.690Z,67.4
2017-10-16T06:37:14.301Z,68.1
2017-10-16T06:38:36.244Z,70.5
2017-10-16T06:39:37.854Z,70.0
2017-10-16T06:41:29.554Z,71.3
2017-10-16T06:42:31.166Z,70.0
2017-10-16T06:44:23.381Z,72.5
2017-10-16T06:45:24.994Z,72.8
2017-10-16T06:46:26.612Z,72.7
2017-10-16T06:47:28.231Z,73.2
2017-10-16T06:48:29.848Z,74.2
2017-10-16T06:49:31.460Z,74.1
2017-10-16T06:50:33.080Z,74.6
2017-10-16T06:51:34.700Z,74.7
2017-10-16T06:52:36.309Z,75.8
2017-10-16T06:53:37.930Z,75.8
2017-10-16T06:54:39.542Z,77.0
2017-10-16T06:55:41.158Z,77.1
2017-10-16T06:56:42.780Z,77.4
2017-10-16T06:57:44.400Z,77.3
2017-10-16T06:58:46.017Z,80.3
2017-10-16T06:59:47.634Z,78.4
2017-10-16T07:00:49.253Z,80.0
2017-10-16T07:01:50.868Z,80.0
2017-10-16T07:02:52.483Z,80.3
2017-10-16T07:03:54.104Z,79.7
2017-10-16T07:04:55.723Z,79.1
2017-10-16T07:05:57.346Z,79.7
2017-10-16T07:06:58.960Z,80.0
2017-10-16T07:08:00.581Z,81.1
2017-10-16T07:09:02.193Z,81.6
2017-10-16T07:10:03.822Z,83.4
2017-10-16T07:11:05.427Z,83.9
2017-10-16T07:12:07.048Z,84.7
2017-10-16T07:13:08.667Z,83.9
2017-10-16T07:14:10.285Z,85.0
2017-10-16T07:15:11.904Z,85.1
2017-10-16T07:16:13.518Z,86.1
2017-10-16T07:17:15.131Z,86.3
2017-10-16T07:18:16.750Z,85.9
2017-10-16T07:19:18.367Z,85.9
2017-10-16T07:20:19.986Z,85.6
2017-10-16T07:21:21.599Z,86.5
2017-10-16T07:22:23.220Z,87.3
2017-10-16T07:23:24.832Z,90.1
2017-10-16T07:24:26.448Z,92.0
2017-10-16T07:25:28.071Z,94.4
2017-10-16T07:26:29.690Z,97.7
2017-10-16T07:27:31.313Z,100.0
2017-10-16T07:28:32.925Z,100.0
2017-10-16T07:29:34.547Z,100.0
2017-10-16T07:30:36.162Z,100.0
2017-10-16T07:31:37.786Z,100.0
2017-10-16T07:32:39.404Z,100.0
2017-10-16T07:33:41.028Z,100.0
2017-10-16T07:34:42.649Z,100.0
2017-10-16T07:35:44.274Z,100.0
2017-10-16T07:36:45.896Z,100.0
2017-10-16T07:37:47.517Z,100.0
2017-10-16T07:38:49.140Z,100.0
2017-10-16T07:39:50.760Z,100.0
2017-10-16T07:40:52.387Z,100.0
2017-10-16T07:41:54.009Z,100.0
2017-10-16T07:42:55.632Z,100.0
2017-10-16T07:43:57.250Z,100.0
2017-10-16T07:44:58.874Z,100.0
2017-10-16T07:46:00.500Z,100.0
2017-10-16T07:47:02.122Z,100.0
2017-10-16T07:48:03.743Z,100.0
2017-10-16T07:49:05.366Z,100.0
2017-10-16T07:50:06.990Z,100.0
2017-10-16T07:51:08.613Z,99.0
2017-10-16T07:52:10.233Z,89.5
2017-10-16T07:53:11.851Z,88.4
2017-10-16T07:54:13.472Z,78.0
2017-10-16T07:55:15.101Z,71.8
2017-10-16T07:56:16.730Z,67.0
2017-10-16T07:57:18.346Z,62.5
2017-10-16T07:58:19.972Z,60.6
2017-10-16T07:59:21.597Z,57.6
2017-10-16T08:00:23.213Z,55.0
2017-10-16T08:01:24.839Z,54.2
2017-10-16T08:02:26.468Z,52.7
2017-10-16T08:03:28.094Z,50.9
2017-10-16T08:04:29.715Z,50.2
2017-10-16T08:05:31.341Z,49.7
2017-10-16T08:06:32.964Z,48.8
2017-10-16T08:07:34.582Z,48.8
2017-10-16T08:08:36.205Z,48.0
2017-10-16T08:09:37.828Z,47.7
2017-10-16T08:10:39.455Z,47.2
2017-10-16T08:11:41.085Z,47.2
2017-10-16T08:12:42.704Z,46.2
2017-10-16T08:13:44.334Z,45.6
2017-10-16T08:14:45.953Z,45.3
2017-10-16T08:15:47.584Z,44.4
2017-10-16T08:16:49.207Z,44.3
2017-10-16T08:17:50.837Z,44.3
2017-10-16T08:18:52.458Z,43.5
2017-10-16T08:19:54.084Z,42.6
2017-10-16T08:20:55.705Z,42.2
2017-10-16T08:21:57.337Z,42.8
2017-10-16T08:22:58.960Z,41.8
2017-10-16T08:24:00.591Z,40.9
2017-10-16T08:25:02.216Z,40.2
2017-10-16T08:26:03.847Z,40.5
2017-10-16T08:27:05.473Z,40.8
2017-10-16T08:28:07.101Z,39.8
2017-10-16T08:29:08.729Z,39.6
2017-10-16T08:30:10.351Z,39.6
2017-10-16T08:31:11.983Z,39.1
2017-10-16T08:32:13.606Z,38.4
2017-10-16T08:33:15.237Z,38.8
2017-10-16T08:34:16.872Z,37.9
2017-10-16T08:35:18.495Z,37.3
2017-10-16T08:36:20.121Z,37.3
2017-10-16T08:37:21.753Z,36.7
2017-10-16T08:38:23.384Z,36.4
2017-10-16T08:39:25.010Z,37.4
2017-10-16T08:40:26.640Z,37.7
2017-10-16T08:41:28.267Z,35.9
2017-10-16T08:42:29.898Z,35.0
2017-10-16T08:43:31.522Z,34.9
2017-10-16T08:44:33.155Z,35.6
2017-10-16T08:45:34.787Z,34.1
2017-10-16T08:46:36.411Z,34.0
2017-10-16T08:47:38.042Z,34.2
2017-10-16T08:48:39.675Z,34.3
2017-10-16T08:49:41.299Z,34.1
2017-10-16T08:50:42.935Z,34.5
2017-10-16T08:51:44.564Z,35.0
2017-10-16T08:52:46.200Z,34.7
2017-10-16T08:53:47.829Z,35.1
2017-10-16T08:54:49.462Z,33.8
2017-10-16T08:55:51.085Z,34.9
2017-10-16T08:56:52.714Z,34.6
2017-10-16T08:57:54.347Z,34.0
2017-10-16T08:58:55.974Z,33.7
2017-10-16T08:59:57.612Z,33.9
2017-10-16T09:00:59.239Z,33.7
2017-10-16T09:02:00.871Z,35.6
2017-10-16T09:03:02.502Z,36.7
2017-10-16T09:04:04.130Z,35.8
2017-10-16T09:05:05.761Z,34.9
2017-10-16T09:06:07.396Z,34.7
2017-10-16T09:07:09.018Z,33.4
2017-10-16T09:08:10.657Z,33.1
2017-10-16T09:09:12.281Z,33.2
2017-10-16T09:10:13.919Z,33.5
2017-10-16T09:11:15.545Z,34.5
2017-10-16T09:12:17.177Z,34.1
2017-10-16T09:13:18.806Z,34.6
2017-10-16T09:14:20.441Z,34.4
2017-10-16T09:15:22.075Z,34.4
2017-10-16T09:16:23.699Z,35.5
2017-10-16T09:17:25.331Z,34.7
2017-10-16T09:18:26.965Z,35.1
2017-10-16T09:19:28.597Z,35.1
2017-10-16T09:20:30.228Z,35.3
2017-10-16T09:21:31.860Z,35.9
2017-10-16T09:22:33.495Z,36.2
2017-10-16T09:23:35.128Z,35.5
2017-10-16T09:24:36.754Z,35.9
2017-10-16T09:25:38.385Z,35.6
2017-10-16T09:26:40.018Z,36.7
2017-10-16T09:27:41.654Z,34.8
2017-10-16T09:28:43.280Z,35.5
2017-10-16T09:29:44.926Z,35.2
2017-10-16T09:30:46.551Z,36.6
2017-10-16T09:31:48.186Z,36.6
2017-10-16T09:32:49.821Z,35.6
2017-10-16T09:33:51.456Z,35.0
2017-10-16T09:34:53.083Z,34.3
2017-10-16T09:35:54.717Z,34.8
2017-10-16T09:36:56.356Z,35.4
2017-10-16T09:37:57.984Z,34.4
2017-10-16T09:38:59.620Z,35.6
2017-10-16T09:40:01.255Z,34.6
2017-10-16T09:41:02.879Z,34.7
2017-10-16T09:42:04.514Z,34.4
2017-10-16T09:43:06.150Z,33.7
2017-10-16T09:44:07.791Z,34.6
2017-10-16T09:45:09.412Z,34.4
2017-10-16T09:46:11.040Z,34.1
2017-10-16T09:47:12.678Z,34.0
2017-10-16T09:48:14.310Z,35.2
2017-10-16T09:49:15.937Z,35.0
2017-10-16T09:50:17.570Z,35.0
2017-10-16T09:51:19.215Z,34.3
2017-10-16T09:52:20.850Z,34.2
2017-10-16T09:53:22.477Z,33.8
2017-10-16T09:54:24.116Z,34.4
2017-10-16T09:55:25.742Z,34.6
2017-10-16T09:56:27.378Z,33.1
2017-10-16T09:57:29.009Z,33.9
2017-10-16T09:58:30.645Z,33.5
2017-10-16T09:59:32.275Z,33.5
2017-10-16T10:00:33.908Z,34.9
2017-10-16T10:01:35.541Z,35.0
2017-10-16T10:02:37.176Z,35.0
2017-10-16T10:03:38.808Z,33.9
2017-10-16T10:04:40.443Z,34.0
2017-10-16T10:05:42.076Z,33.5
2017-10-16T10:06:43.712Z,33.4
2017-10-16T10:07:45.339Z,33.3
2017-10-16T10:08:46.977Z,33.8
2017-10-16T10:09:48.608Z,34.2
2017-10-16T10:10:50.240Z,32.5
2017-10-16T10:11:51.880Z,33.2
2017-10-16T10:12:53.511Z,34.1
2017-10-16T10:13:55.146Z,33.8
2017-10-16T10:14:56.779Z,32.6
2017-10-16T10:15:58.411Z,32.8
2017-10-16T10:17:00.058Z,33.4
2017-10-16T10:18:01.675Z,34.0
2017-10-16T10:19:03.306Z,33.4
2017-10-16T10:20:04.943Z,34.1
2017-10-16T10:21:06.572Z,34.4
2017-10-16T10:22:08.211Z,33.1
2017-10-16T10:23:09.832Z,33.2
2017-10-16T10:24:11.473Z,33.5
2017-10-16T10:25:13.105Z,32.7
2017-10-16T10:26:14.744Z,33.3
2017-10-16T10:27:16.374Z,34.0
2017-10-16T10:28:18.013Z,33.9
2017-10-16T10:29:19.646Z,33.2
2017-10-16T10:30:21.276Z,32.8
2017-10-16T10:31:22.906Z,34.0
2017-10-16T10:32:24.544Z,35.1
2017-10-16T10:33:26.182Z,34.8
2017-10-16T10:34:27.815Z,34.0
2017-10-16T10:35:29.448Z,33.8
2017-10-16T10:36:31.086Z,34.1
2017-10-16T10:37:32.722Z,34.4
2017-10-16T10:38:34.351Z,33.5
2017-10-16T10:39:35.986Z,33.3
2017-10-16T10:40:37.628Z,33.8
2017-10-16T10:41:39.266Z,33.3
2017-10-16T10:42:40.895Z,33.6
2017-10-16T10:43:42.528Z,34.6
2017-10-16T10:44:44.159Z,33.3
2017-10-16T10:45:45.789Z,33.9
2017-10-16T10:46:47.423Z,34.2
2017-10-16T10:47:49.060Z,33.6
2017-10-16T10:48:50.688Z,33.4
2017-10-16T10:49:52.316Z,34.0
2017-10-16T10:50:53.950Z,34.4
2017-10-16T10:51:55.581Z,35.2
2017-10-16T10:52:57.218Z,34.5
2017-10-16T10:53:58.845Z,35.3
2017-10-16T10:55:00.477Z,34.9
2017-10-16T10:56:02.110Z,35.0
2017-10-16T10:57:03.739Z,34.6
2017-10-16T10:58:05.372Z,33.8
2017-10-16T10:59:06.999Z,35.6
2017-10-16T11:00:08.641Z,35.0
2017-10-16T11:01:10.267Z,35.5
2017-10-16T11:02:11.902Z,36.3
2017-10-16T11:03:13.531Z,36.4
2017-10-16T11:04:15.165Z,37.9
2017-10-16T11:05:16.795Z,37.4
2017-10-16T11:06:18.427Z,37.9
2017-10-16T11:07:20.053Z,39.1
2017-10-16T11:08:21.685Z,39.6
2017-10-16T11:09:23.311Z,41.1
2017-10-16T11:10:24.941Z,41.4
2017-10-16T11:11:27.368Z,42.2
2017-10-16T11:12:28.996Z,42.5
2017-10-16T11:13:30.625Z,43.4
2017-10-16T11:14:32.244Z,43.7
2017-10-16T11:15:33.882Z,44.6
2017-10-16T11:16:35.513Z,45.2
2017-10-16T11:17:37.142Z,44.9
2017-10-16T11:18:38.764Z,45.2
2017-10-16T11:19:40.396Z,44.9
2017-10-16T11:20:42.019Z,45.4
2017-10-16T11:21:43.652Z,45.3
2017-10-16T11:22:45.276Z,44.7
2017-10-16T11:23:46.910Z,44.4
2017-10-16T11:24:48.539Z,44.4
2017-10-16T11:25:50.160Z,44.9
2017-10-16T11:26:51.790Z,44.0
2017-10-16T11:27:53.418Z,44.1
2017-10-16T11:28:55.049Z,44.5
2017-10-16T11:29:56.672Z,44.2
2017-10-16T11:30:58.306Z,44.9
2017-10-16T11:31:59.933Z,45.3
2017-10-16T11:33:01.563Z,44.3
2017-10-16T11:34:03.186Z,44.8
2017-10-16T11:35:04.813Z,43.8
2017-10-16T11:36:06.447Z,43.0
2017-10-16T11:37:08.076Z,42.5
2017-10-16T11:38:09.704Z,42.3
2017-10-16T11:39:11.333Z,42.6
2017-10-16T11:40:12.960Z,42.6
2017-10-16T11:41:14.589Z,42.2
2017-10-16T11:42:16.214Z,40.7
2017-10-16T11:43:17.839Z,41.1
2017-10-16T11:44:19.466Z,40.4
2017-10-16T11:45:21.101Z,39.5
2017-10-16T11:46:22.731Z,39.5
2017-10-16T11:47:24.356Z,39.0
2017-10-16T11:48:25.987Z,39.2
2017-10-16T11:49:27.615Z,39.0
2017-10-16T11:50:29.237Z,38.4
2017-10-16T11:51:30.864Z,37.9
2017-10-16T11:52:32.497Z,37.6
2017-10-16T11:53:34.131Z,37.0
2017-10-16T11:54:35.757Z,38.0
2017-10-16T11:55:37.381Z,37.8
2017-10-16T11:56:39.012Z,37.2
2017-10-16T11:57:40.637Z,38.8
2017-10-16T11:58:42.270Z,37.8
2017-10-16T11:59:43.901Z,38.6
2017-10-16T12:00:45.553Z,38.8
2017-10-16T12:01:47.172Z,37.4
2017-10-16T12:02:48.797Z,36.4
2017-10-16T12:03:50.430Z,37.0
2017-10-16T12:04:52.054Z,37.8
2017-10-16T12:05:53.686Z,37.0
2017-10-16T12:06:55.312Z,37.5
2017-10-16T12:07:56.945Z,37.0
2017-10-16T12:08:58.565Z,36.4
2017-10-16T12:10:00.197Z,38.0
2017-10-16T12:11:01.821Z,37.2
2017-10-16T12:12:03.453Z,37.2
2017-10-16T12:13:05.079Z,37.6
2017-10-16T12:14:06.705Z,38.9
2017-10-16T12:15:08.341Z,39.0
2017-10-16T12:16:09.963Z,38.5
2017-10-16T12:17:11.588Z,38.1
2017-10-16T12:18:13.214Z,37.6
2017-10-16T12:19:14.839Z,38.0
2017-10-16T12:20:16.469Z,38.0
2017-10-16T12:21:18.099Z,38.2
2017-10-16T12:22:19.721Z,37.8
2017-10-16T12:23:21.351Z,37.6
2017-10-16T12:24:22.972Z,38.3
2017-10-16T12:25:24.599Z,37.8
2017-10-16T12:26:26.221Z,39.2
2017-10-16T12:27:27.848Z,39.0
2017-10-16T12:28:29.472Z,38.8
2017-10-16T12:29:31.106Z,38.9
2017-10-16T12:30:32.736Z,39.2
2017-10-16T12:31:34.355Z,39.3
2017-10-16T12:32:35.977Z,39.5
2017-10-16T12:33:37.603Z,38.1
2017-10-16T12:34:39.227Z,38.8
2017-10-16T12:35:40.859Z,39.4
2017-10-16T12:36:42.487Z,40.0
2017-10-16T12:37:44.112Z,41.1
2017-10-16T12:38:45.740Z,40.6
2017-10-16T12:39:47.359Z,41.4
2017-10-16T12:40:48.982Z,41.1
2017-10-16T12:41:50.613Z,41.0
2017-10-16T12:42:52.238Z,40.8
2017-10-16T12:43:53.864Z,41.7
2017-10-16T12:44:55.484Z,41.6
2017-10-16T12:45:57.114Z,41.9
2017-10-16T12:46:58.735Z,42.5
2017-10-16T12:48:00.359Z,42.5
2017-10-16T12:49:01.988Z,42.6
2017-10-16T12:50:03.614Z,43.0
2017-10-16T12:51:05.246Z,43.4
2017-10-16T12:52:06.863Z,43.3
2017-10-16T12:53:08.491Z,43.5
2017-10-16T12:54:10.113Z,44.3
2017-10-16T12:55:11.737Z,45.0
2017-10-16T12:56:13.369Z,44.9
2017-10-16T12:57:14.989Z,45.2
2017-10-16T12:58:16.623Z,45.4
2017-10-16T12:59:18.236Z,46.2
2017-10-16T13:00:19.863Z,45.9
2017-10-16T13:01:21.483Z,45.9
2017-10-16T13:02:23.111Z,45.8
2017-10-16T13:03:24.737Z,46.3
2017-10-16T13:04:26.368Z,45.9
2017-10-16T13:05:27.989Z,46.1
2017-10-16T13:06:29.616Z,46.9
2017-10-16T13:07:31.237Z,46.0
2017-10-16T13:08:32.865Z,46.1
2017-10-16T13:09:34.487Z,46.7
2017-10-16T13:10:36.118Z,46.5
2017-10-16T13:11:37.740Z,47.1
2017-10-16T13:12:39.369Z,47.5
2017-10-16T13:13:40.993Z,48.2
2017-10-16T13:14:42.612Z,48.2
2017-10-16T13:15:44.233Z,48.7
2017-10-16T13:16:45.864Z,49.1
2017-10-16T13:17:47.494Z,49.2
2017-10-16T13:18:49.113Z,49.2
2017-10-16T13:19:50.735Z,50.6
2017-10-16T13:20:52.366Z,50.6
2017-10-16T13:21:53.986Z,50.4
2017-10-16T13:22:55.606Z,51.1
2017-10-16T13:23:57.230Z,51.5
2017-10-16T13:24:58.859Z,51.7
2017-10-16T13:26:00.485Z,51.4
2017-10-16T13:27:02.108Z,51.9
2017-10-16T13:28:03.734Z,52.0
2017-10-16T13:29:05.360Z,52.3
2017-10-16T13:30:06.979Z,52.4
2017-10-16T13:31:08.598Z,52.5
2017-10-16T13:32:10.220Z,53.0
2017-10-16T13:33:11.847Z,53.1
2017-10-16T13:34:13.474Z,53.7
2017-10-16T13:35:15.094Z,53.9
2017-10-16T13:36:16.719Z,53.7
2017-10-16T13:37:18.340Z,54.4
2017-10-16T13:38:19.965Z,54.4
2017-10-16T13:39:21.584Z,56.2
2017-10-16T13:40:23.210Z,55.8
2017-10-16T13:41:24.836Z,55.6